createdAt,value
2024-02-10T00:00:51.035Z,13.13
2024-02-10T00:03:23.908Z,15.90
2024-02-10T00:05:54.198Z,13.47
2024-02-10T00:08:26.894Z,20.43
2024-02-10T00:10:57.140Z,11.63
2024-02-10T00:13:27.477Z,16.20
2024-02-10T00:15:58.559Z,16.33
2024-02-10T00:18:30.495Z,15.83
2024-02-10T00:21:01.387Z,16.73
2024-02-10T00:23:34.136Z,20.60
2024-02-10T00:26:05.764Z,16.20
2024-02-10T00:28:37.449Z,26.63
2024-02-10T00:31:09.265Z,15.67
2024-02-10T00:33:39.478Z,16.57
2024-02-10T00:36:10.034Z,20.87
2024-02-10T00:38:44.167Z,15.80
2024-02-10T00:41:14.656Z,23.13
2024-02-10T00:43:46.823Z,16.03
2024-02-10T00:46:18.142Z,12.37
2024-02-10T00:48:49.835Z,15.37
2024-02-10T00:51:20.035Z,23.53
2024-02-10T00:53:54.905Z,15.27
2024-02-10T00:56:25.911Z,21.80
2024-02-10T00:58:56.125Z,24.33
2024-02-10T01:01:29.876Z,23.73
2024-02-10T01:04:02.682Z,22.37
2024-02-10T01:06:32.859Z,21.13
2024-02-10T01:09:06.440Z,23.83
2024-02-10T01:11:44.086Z,23.53
2024-02-10T01:14:14.402Z,14.10
2024-02-10T01:16:46.171Z,20.40
2024-02-10T01:19:18.554Z,22.60
2024-02-10T01:21:48.806Z,24.17
2024-02-10T01:24:21.690Z,23.53
2024-02-10T01:26:55.077Z,20.03
2024-02-10T01:29:25.763Z,18.37
2024-02-10T01:31:56.347Z,25.83
2024-02-10T01:34:27.359Z,19.90
2024-02-10T01:37:00.376Z,20.43
2024-02-10T01:39:33.159Z,23.17
2024-02-10T01:42:03.305Z,21.57
2024-02-10T01:44:33.424Z,20.80
2024-02-10T01:47:03.734Z,18.33
2024-02-10T01:49:34.014Z,16.40
2024-02-10T01:52:04.286Z,20.97
2024-02-10T01:54:37.854Z,20.53
2024-02-10T01:57:09.328Z,17.57
2024-02-10T01:59:39.828Z,19.73
2024-02-10T02:02:11.435Z,21.60
2024-02-10T02:04:41.518Z,20.83
2024-02-10T02:07:12.525Z,15.77
2024-02-10T02:09:45.548Z,22.27
2024-02-10T02:12:17.184Z,31.13
2024-02-10T02:14:48.340Z,29.13
2024-02-10T02:17:19.095Z,30.37
2024-02-10T02:19:49.225Z,20.90
2024-02-10T02:22:20.120Z,14.13
2024-02-10T02:24:54.223Z,17.30
2024-02-10T02:27:24.520Z,25.27
2024-02-10T02:29:58.113Z,34.87
2024-02-10T02:32:30.149Z,35.20
2024-02-10T02:35:00.474Z,22.67
2024-02-10T02:37:34.274Z,22.97
2024-02-10T02:40:07.773Z,21.13
2024-02-10T02:42:38.198Z,26.90
2024-02-10T02:45:12.277Z,21.90
2024-02-10T02:47:42.874Z,25.03
2024-02-10T02:50:16.568Z,23.90
2024-02-10T02:52:46.931Z,24.67
2024-02-10T02:55:19.916Z,18.10
2024-02-10T02:57:50.009Z,35.80
2024-02-10T03:00:20.975Z,22.10
2024-02-10T03:02:52.552Z,29.00
2024-02-10T03:05:20.061Z,34.90
2024-02-10T03:07:50.201Z,20.87
2024-02-10T03:10:23.397Z,25.53
2024-02-10T03:12:53.781Z,27.00
2024-02-10T03:15:24.007Z,27.50
2024-02-10T03:17:54.889Z,21.83
2024-02-10T03:20:30.306Z,25.23
2024-02-10T03:23:03.435Z,41.73
2024-02-10T03:25:36.526Z,25.13
2024-02-10T03:28:07.315Z,29.20
2024-02-10T03:30:37.449Z,31.70
2024-02-10T03:33:07.858Z,25.57
2024-02-10T03:35:37.958Z,26.70
2024-02-10T03:38:09.178Z,28.83
2024-02-10T03:40:41.853Z,24.07
2024-02-10T03:43:13.025Z,29.63
2024-02-10T03:45:43.145Z,37.37
2024-02-10T03:48:13.475Z,32.97
2024-02-10T03:50:43.899Z,24.50
2024-02-10T03:53:14.094Z,28.90
2024-02-10T03:55:46.953Z,25.57
2024-02-10T03:58:19.266Z,23.80
2024-02-10T04:00:49.385Z,29.53
2024-02-10T04:03:21.021Z,33.60
2024-02-10T04:05:51.117Z,21.47
2024-02-10T04:08:21.234Z,24.07
2024-02-10T04:10:54.026Z,22.50
2024-02-10T04:13:24.333Z,21.23
2024-02-10T04:15:58.090Z,27.23
2024-02-10T04:18:29.519Z,35.00
2024-02-10T04:21:02.067Z,21.50
2024-02-10T04:23:33.138Z,25.10
2024-02-10T04:26:06.699Z,35.63
2024-02-10T04:28:37.679Z,27.47
2024-02-10T04:31:09.025Z,22.63
2024-02-10T04:33:39.376Z,17.17
2024-02-10T04:36:13.745Z,25.20
2024-02-10T04:38:43.837Z,23.70
2024-02-10T04:41:16.544Z,24.03
2024-02-10T04:43:46.675Z,25.03
2024-02-10T04:46:18.685Z,23.43
2024-02-10T04:48:49.551Z,29.50
2024-02-10T04:51:19.753Z,29.60
2024-02-10T04:53:49.820Z,22.23
2024-02-10T04:56:29.382Z,23.20
2024-02-10T04:58:59.554Z,21.40
2024-02-10T05:01:34.480Z,24.43
2024-02-10T05:04:06.509Z,26.00
2024-02-10T05:06:38.668Z,32.03
2024-02-10T05:09:09.144Z,22.63
2024-02-10T05:11:42.000Z,28.70
2024-02-10T05:14:12.454Z,19.90
2024-02-10T05:16:42.756Z,22.70
2024-02-10T05:19:14.513Z,20.77
2024-02-10T05:21:44.635Z,20.70
2024-02-10T05:24:16.442Z,21.07
2024-02-10T05:26:50.981Z,17.27
2024-02-10T05:29:21.085Z,23.63
2024-02-10T05:31:51.211Z,13.90
2024-02-10T05:34:21.319Z,23.93
2024-02-10T05:36:51.398Z,21.77
2024-02-10T05:39:22.262Z,20.73
2024-02-10T05:41:56.105Z,15.30
2024-02-10T05:44:27.886Z,13.30
2024-02-10T05:46:58.061Z,12.07
2024-02-10T05:49:28.334Z,15.33
2024-02-10T05:51:58.417Z,13.70
2024-02-10T05:54:28.669Z,17.90
2024-02-10T05:57:01.382Z,17.97
2024-02-10T05:59:31.433Z,16.20
2024-02-10T06:02:02.535Z,20.23
2024-02-10T06:04:35.000Z,14.73
2024-02-10T06:07:08.818Z,14.53
2024-02-10T06:09:38.988Z,20.67
2024-02-10T06:12:12.249Z,13.87
2024-02-10T06:14:43.417Z,20.17
2024-02-10T06:17:14.699Z,28.07
2024-02-10T06:19:45.755Z,20.40
2024-02-10T06:22:19.570Z,23.63
2024-02-10T06:24:49.706Z,17.03
2024-02-10T06:27:22.573Z,14.50
2024-02-10T06:29:52.762Z,19.97
2024-02-10T06:32:23.197Z,12.40
2024-02-10T06:34:54.447Z,17.67
2024-02-10T06:37:26.536Z,16.60
2024-02-10T06:39:56.726Z,17.07
2024-02-10T06:42:35.720Z,18.77
2024-02-10T06:45:09.221Z,14.83
2024-02-10T06:47:39.865Z,14.80
2024-02-10T06:50:15.024Z,15.00
2024-02-10T06:52:46.479Z,16.33
2024-02-10T06:55:14.074Z,15.33
2024-02-10T06:57:49.728Z,9.93
2024-02-10T07:00:20.556Z,21.40
2024-02-10T07:02:52.618Z,8.67
2024-02-10T07:05:24.578Z,8.23
2024-02-10T07:07:55.362Z,11.13
2024-02-10T07:10:31.148Z,8.00
2024-02-10T07:13:05.965Z,10.23
2024-02-10T07:15:36.145Z,8.30
2024-02-10T07:18:08.831Z,11.80
2024-02-10T07:20:39.241Z,11.70
2024-02-10T07:23:09.309Z,11.43
2024-02-10T07:25:40.568Z,10.13
2024-02-10T07:28:14.081Z,12.77
2024-02-10T07:30:48.054Z,10.70
2024-02-10T07:33:18.107Z,11.80
2024-02-10T07:35:51.272Z,14.53
2024-02-10T07:38:20.178Z,7.13
2024-02-10T07:40:50.421Z,19.13
2024-02-10T07:43:23.204Z,13.23
2024-02-10T07:45:54.034Z,19.13
2024-02-10T07:48:24.240Z,23.80
2024-02-10T07:50:55.595Z,21.33
2024-02-10T07:53:27.020Z,18.83
2024-02-10T07:55:59.346Z,17.73
2024-02-10T07:58:32.147Z,20.80
2024-02-10T08:01:03.472Z,17.70
2024-02-10T08:03:33.810Z,16.90
2024-02-10T08:06:05.728Z,15.40
2024-02-10T08:08:35.952Z,19.17
2024-02-10T08:11:06.197Z,15.87
2024-02-10T08:13:39.026Z,11.90
2024-02-10T08:16:11.012Z,15.30
2024-02-10T08:18:43.317Z,15.60
2024-02-10T08:21:13.505Z,9.80
2024-02-10T08:23:46.420Z,14.97
2024-02-10T08:26:19.185Z,8.10
2024-02-10T08:28:52.920Z,10.83
2024-02-10T08:31:24.875Z,9.00
2024-02-10T08:33:56.975Z,11.10
2024-02-10T08:36:28.498Z,8.57
2024-02-10T08:39:05.393Z,10.33
2024-02-10T08:41:37.077Z,6.57
2024-02-10T08:44:09.780Z,9.47
2024-02-10T08:46:42.962Z,9.00
2024-02-10T08:49:16.189Z,10.20
2024-02-10T08:52:00.197Z,7.97
2024-02-10T08:54:40.937Z,10.00
2024-02-10T08:57:11.350Z,9.40
2024-02-10T08:59:45.102Z,8.50
2024-02-10T09:02:15.642Z,6.53
2024-02-10T09:04:46.190Z,7.00
2024-02-10T09:07:16.493Z,7.60
2024-02-10T09:09:46.746Z,6.80
2024-02-10T09:12:18.430Z,6.00
2024-02-10T09:14:52.614Z,8.07
2024-02-10T09:17:24.594Z,7.40
2024-02-10T09:19:54.775Z,9.00
2024-02-10T09:22:24.863Z,5.53
2024-02-10T09:24:56.172Z,5.00
2024-02-10T09:27:26.265Z,6.13
2024-02-10T09:30:01.900Z,5.47
2024-02-10T09:32:32.266Z,3.63
2024-02-10T09:35:05.032Z,7.03
2024-02-10T09:37:35.239Z,4.17
2024-02-10T09:40:09.357Z,5.47
2024-02-10T09:42:55.732Z,4.90
2024-02-10T09:45:37.059Z,5.50
2024-02-10T09:48:13.358Z,3.30
2024-02-10T09:50:51.610Z,4.10
2024-02-10T09:53:27.142Z,4.03
2024-02-10T09:56:03.523Z,3.20
2024-02-10T09:58:41.295Z,3.50
2024-02-10T10:01:20.817Z,3.00
2024-02-10T10:03:57.373Z,2.30
2024-02-10T10:06:31.939Z,4.07
2024-02-10T10:09:09.156Z,2.70
2024-02-10T10:11:46.382Z,2.10
2024-02-10T10:14:21.705Z,2.67
2024-02-10T10:17:07.652Z,2.10
2024-02-10T10:19:42.896Z,3.20
2024-02-10T10:22:15.616Z,3.37
2024-02-10T10:24:53.764Z,3.40
2024-02-10T10:27:31.131Z,2.77
2024-02-10T10:30:04.914Z,3.10
2024-02-10T10:32:44.434Z,3.00
2024-02-10T10:35:20.236Z,2.30
2024-02-10T10:37:55.153Z,2.20
2024-02-10T10:40:30.433Z,3.23
2024-02-10T10:43:06.157Z,5.70
2024-02-10T10:45:42.496Z,3.77
2024-02-10T10:48:24.447Z,3.87
2024-02-10T10:51:05.589Z,2.90
2024-02-10T10:53:42.440Z,3.20
2024-02-10T10:56:16.487Z,2.07
2024-02-10T10:58:54.103Z,1.77
2024-02-10T11:01:29.284Z,2.57
2024-02-10T11:04:09.485Z,1.70
2024-02-10T11:06:43.450Z,2.17
2024-02-10T11:09:26.881Z,3.30
2024-02-10T11:12:01.949Z,1.93
2024-02-10T11:14:34.124Z,1.70
2024-02-10T11:17:22.974Z,1.90
2024-02-10T11:20:13.646Z,1.80
2024-02-10T11:22:48.283Z,7.20
2024-02-10T11:25:24.954Z,1.47
2024-02-10T11:28:05.411Z,1.40
2024-02-10T11:30:38.460Z,3.33
2024-02-10T11:33:12.005Z,1.77
2024-02-10T11:35:50.477Z,2.13
2024-02-10T11:38:35.744Z,1.27
2024-02-10T11:41:18.448Z,1.30
2024-02-10T11:43:52.565Z,1.50
2024-02-10T11:46:26.683Z,1.30
2024-02-10T11:49:02.790Z,1.70
2024-02-10T11:51:39.403Z,2.17
2024-02-10T11:54:14.325Z,1.97
2024-02-10T11:56:53.768Z,1.10
2024-02-10T11:59:29.908Z,1.30
2024-02-10T12:02:04.782Z,2.87
2024-02-10T12:04:51.800Z,2.07
2024-02-10T12:07:30.318Z,1.10
2024-02-10T12:10:02.571Z,6.70
2024-02-10T12:12:42.062Z,13.43
2024-02-10T12:15:21.588Z,1.90
2024-02-10T12:17:58.665Z,1.33
2024-02-10T12:20:31.745Z,1.20
2024-02-10T12:23:07.157Z,2.83
2024-02-10T12:25:40.176Z,3.27
2024-02-10T12:28:14.076Z,1.10
2024-02-10T12:30:47.103Z,0.80
2024-02-10T12:33:21.319Z,1.00
2024-02-10T12:35:59.874Z,0.90
2024-02-10T12:38:35.043Z,1.10
2024-02-10T12:41:12.124Z,1.50
2024-02-10T12:43:47.579Z,0.80
2024-02-10T12:46:20.340Z,3.33
2024-02-10T12:48:53.992Z,0.90
2024-02-10T12:51:29.394Z,15.03
2024-02-10T12:54:05.170Z,2.77
2024-02-10T12:56:39.673Z,1.50
2024-02-10T12:59:18.208Z,1.10
2024-02-10T13:01:59.215Z,1.73
2024-02-10T13:04:32.863Z,1.30
2024-02-10T13:07:16.564Z,1.03
2024-02-10T13:09:52.247Z,0.90
2024-02-10T13:12:25.897Z,1.13
2024-02-10T13:15:00.247Z,2.37
2024-02-10T13:17:32.666Z,1.20
2024-02-10T13:20:06.183Z,1.20
2024-02-10T13:22:42.490Z,2.23
2024-02-10T13:25:18.358Z,11.83
2024-02-10T13:27:53.042Z,1.53
2024-02-10T13:30:27.171Z,1.93
2024-02-10T13:33:02.419Z,1.60
2024-02-10T13:35:36.337Z,4.00
2024-02-10T13:38:21.481Z,4.97
2024-02-10T13:41:11.202Z,8.93
2024-02-10T13:43:55.792Z,1.00
2024-02-10T13:46:40.510Z,3.00
2024-02-10T13:49:27.929Z,2.60
2024-02-10T13:52:10.414Z,1.10
2024-02-10T13:54:54.954Z,2.20
2024-02-10T13:57:40.790Z,0.80
2024-02-10T14:00:26.021Z,1.00
2024-02-10T14:03:06.604Z,2.40
2024-02-10T14:05:56.654Z,1.97
2024-02-10T14:08:43.764Z,3.37
2024-02-10T14:11:21.855Z,2.07
2024-02-10T14:13:57.444Z,1.50
2024-02-10T14:16:32.245Z,0.97
2024-02-10T14:19:07.578Z,2.60
2024-02-10T14:21:40.105Z,1.20
2024-02-10T14:24:17.196Z,3.80
2024-02-10T14:27:02.570Z,1.67
2024-02-10T14:29:38.643Z,1.30
2024-02-10T14:32:19.548Z,2.77
2024-02-10T14:35:10.142Z,2.80
2024-02-10T14:37:48.375Z,2.70
2024-02-10T14:40:20.851Z,2.73
2024-02-10T14:42:51.136Z,2.80
2024-02-10T14:45:23.886Z,1.80
2024-02-10T14:47:55.999Z,3.33
2024-02-10T14:50:27.184Z,4.30
2024-02-10T14:52:57.748Z,1.57
2024-02-10T14:55:29.678Z,1.90
2024-02-10T14:57:59.940Z,2.77
2024-02-10T15:00:34.965Z,3.23
2024-02-10T15:03:09.881Z,4.30
2024-02-10T15:05:43.091Z,2.70
2024-02-10T15:08:13.387Z,3.40
2024-02-10T15:10:44.264Z,6.60
2024-02-10T15:13:14.641Z,7.43
2024-02-10T15:15:47.512Z,1.60
2024-02-10T15:18:20.880Z,6.80
2024-02-10T15:20:55.706Z,7.83
2024-02-10T15:23:26.863Z,3.73
2024-02-10T15:25:57.924Z,2.60
2024-02-10T15:28:30.538Z,9.70
2024-02-10T15:31:06.245Z,3.53
2024-02-10T15:33:36.974Z,2.80
2024-02-10T15:36:23.485Z,2.47
2024-02-10T15:38:53.643Z,10.57
2024-02-10T15:41:24.273Z,9.47
2024-02-10T15:43:54.814Z,4.77
2024-02-10T15:46:27.911Z,2.73
2024-02-10T15:48:58.062Z,1.60
2024-02-10T15:51:28.116Z,2.07
2024-02-10T15:53:58.179Z,3.57
2024-02-10T15:56:30.461Z,1.50
2024-02-10T15:59:07.845Z,1.07
2024-02-10T16:01:48.086Z,0.90
2024-02-10T16:04:22.260Z,2.30
2024-02-10T16:06:56.229Z,2.37
2024-02-10T16:09:29.273Z,2.60
2024-02-10T16:12:02.314Z,1.80
2024-02-10T16:14:38.097Z,3.73
2024-02-10T16:17:16.611Z,5.40
2024-02-10T16:19:56.032Z,3.97
2024-02-10T16:22:29.602Z,6.53
2024-02-10T16:25:01.893Z,7.20
2024-02-10T16:27:34.708Z,2.93
2024-02-10T16:30:10.721Z,1.90
2024-02-10T16:32:50.720Z,3.00
2024-02-10T16:35:27.415Z,3.43
2024-02-10T16:38:02.233Z,6.90
2024-02-10T16:40:37.101Z,5.70
2024-02-10T16:43:10.898Z,5.73
2024-02-10T16:45:43.564Z,3.60
2024-02-10T16:48:22.831Z,2.50
2024-02-10T16:51:02.099Z,3.60
2024-02-10T16:53:37.743Z,7.50
2024-02-10T16:56:19.213Z,2.60
2024-02-10T16:58:56.470Z,4.30
2024-02-10T17:01:29.762Z,6.03
2024-02-10T17:04:05.311Z,4.90
2024-02-10T17:06:37.609Z,5.23
2024-02-10T17:09:10.024Z,2.90
2024-02-10T17:11:40.462Z,3.90
2024-02-10T17:14:10.651Z,5.67
2024-02-10T17:16:41.168Z,4.53
2024-02-10T17:19:16.851Z,5.60
2024-02-10T17:21:48.083Z,5.67
2024-02-10T17:24:18.194Z,6.30
2024-02-10T17:26:48.367Z,4.30
2024-02-10T17:29:18.451Z,3.30
2024-02-10T17:31:51.726Z,2.77
2024-02-10T17:34:24.683Z,6.73
2024-02-10T17:36:54.842Z,9.13
2024-02-10T17:39:25.130Z,14.70
2024-02-10T17:41:55.276Z,6.67
2024-02-10T17:44:25.314Z,7.30
2024-02-10T17:46:56.057Z,4.07
2024-02-10T17:49:28.906Z,5.83
2024-02-10T17:51:58.999Z,7.30
2024-02-10T17:54:30.707Z,4.93
2024-02-10T17:57:00.936Z,4.37
2024-02-10T17:59:31.516Z,4.90
2024-02-10T18:02:03.352Z,4.27
2024-02-10T18:04:36.251Z,4.60
2024-02-10T18:07:06.524Z,9.47
2024-02-10T18:09:36.684Z,4.10
2024-02-10T18:12:09.883Z,5.73
2024-02-10T18:14:41.398Z,4.63
2024-02-10T18:17:14.341Z,4.80
2024-02-10T18:19:46.989Z,4.80
2024-02-10T18:22:17.700Z,6.40
2024-02-10T18:24:49.198Z,4.30
2024-02-10T18:27:19.254Z,5.50
2024-02-10T18:29:49.416Z,5.90
2024-02-10T18:32:19.556Z,11.70
2024-02-10T18:34:53.922Z,8.67
2024-02-10T18:37:24.121Z,4.80
2024-02-10T18:39:54.588Z,7.30
2024-02-10T18:42:24.766Z,4.17
2024-02-10T18:44:55.052Z,6.60
2024-02-10T18:47:25.145Z,4.10
2024-02-10T18:49:57.895Z,4.00
2024-02-10T18:52:28.398Z,6.20
2024-02-10T18:54:59.412Z,9.50
2024-02-10T18:57:30.157Z,7.83
2024-02-10T19:00:00.267Z,10.07
2024-02-10T19:02:30.409Z,5.17
2024-02-10T19:05:03.337Z,6.00
2024-02-10T19:07:35.016Z,5.80
2024-02-10T19:10:08.069Z,6.17
2024-02-10T19:12:39.550Z,6.40
2024-02-10T19:15:11.461Z,7.53
2024-02-10T19:17:41.652Z,11.47
2024-02-10T19:20:18.013Z,6.00
2024-02-10T19:22:49.724Z,7.10
2024-02-10T19:25:21.536Z,9.67
2024-02-10T19:27:52.020Z,5.30
2024-02-10T19:30:22.363Z,5.60
2024-02-10T19:32:54.977Z,8.53
2024-02-10T19:35:28.785Z,6.87
2024-02-10T19:37:59.045Z,5.57
2024-02-10T19:40:29.174Z,7.57
2024-02-10T19:43:00.081Z,5.77
2024-02-10T19:45:30.248Z,11.73
2024-02-10T19:48:00.561Z,6.47
2024-02-10T19:50:34.020Z,5.20
2024-02-10T19:53:06.670Z,9.90
2024-02-10T19:55:36.826Z,7.53
2024-02-10T19:58:06.852Z,6.73
2024-02-10T20:00:37.017Z,6.43
2024-02-10T20:03:08.191Z,10.23
2024-02-10T20:05:41.194Z,7.73
2024-02-10T20:08:11.376Z,8.40
2024-02-10T20:10:41.609Z,9.27
2024-02-10T20:13:11.851Z,10.33
2024-02-10T20:15:42.673Z,11.83
2024-02-10T20:18:13.539Z,9.07
2024-02-10T20:20:46.243Z,12.83
2024-02-10T20:23:18.183Z,34.33
2024-02-10T20:25:48.405Z,13.43
2024-02-10T20:28:18.865Z,14.13
2024-02-10T20:30:50.504Z,12.03
2024-02-10T20:33:20.654Z,17.60
2024-02-10T20:35:54.511Z,14.30
2024-02-10T20:38:24.568Z,13.37
2024-02-10T20:40:54.646Z,19.17
2024-02-10T20:43:24.779Z,19.40
2024-02-10T20:45:54.954Z,17.80
2024-02-10T20:48:25.383Z,14.80
2024-02-10T20:50:58.897Z,23.07
2024-02-10T20:53:29.339Z,17.20
2024-02-10T20:56:00.576Z,19.80
2024-02-10T20:58:31.305Z,20.97
2024-02-10T21:01:01.582Z,20.83
2024-02-10T21:03:31.850Z,18.83
2024-02-10T21:06:04.768Z,20.43
2024-02-10T21:08:36.495Z,18.77
2024-02-10T21:11:06.825Z,20.73
2024-02-10T21:13:38.396Z,20.20
2024-02-10T21:16:10.092Z,22.70
2024-02-10T21:18:40.282Z,25.40
2024-02-10T21:21:13.196Z,27.43
2024-02-10T21:23:43.323Z,24.00
2024-02-10T21:26:13.400Z,27.70
2024-02-10T21:28:43.557Z,25.23
2024-02-10T21:31:13.689Z,25.27
2024-02-10T21:33:44.873Z,22.67
2024-02-10T21:36:20.104Z,23.97
2024-02-10T21:38:50.567Z,27.37
2024-02-10T21:41:21.525Z,27.37
2024-02-10T21:43:51.841Z,31.43
2024-02-10T21:46:23.891Z,26.47
2024-02-10T21:48:54.067Z,25.33
2024-02-10T21:51:27.862Z,29.43
2024-02-10T21:53:58.445Z,27.00
2024-02-10T21:56:28.472Z,24.37
2024-02-10T21:59:01.351Z,32.57
2024-02-10T22:01:31.663Z,29.70
2024-02-10T22:04:02.182Z,30.43
2024-02-10T22:06:34.935Z,36.97
2024-02-10T22:09:05.856Z,30.40
2024-02-10T22:11:36.027Z,25.73
2024-02-10T22:14:11.177Z,33.13
2024-02-10T22:16:43.986Z,34.73
2024-02-10T22:19:14.821Z,30.37
2024-02-10T22:21:49.282Z,34.70
2024-02-10T22:24:19.487Z,33.93
2024-02-10T22:26:49.596Z,32.97
2024-02-10T22:29:23.474Z,30.13
2024-02-10T22:31:53.729Z,33.07
2024-02-10T22:34:25.463Z,34.60
2024-02-10T22:36:58.356Z,31.30
2024-02-10T22:39:29.213Z,32.40
2024-02-10T22:42:00.122Z,36.67
2024-02-10T22:44:30.343Z,32.93
2024-02-10T22:47:07.036Z,35.93
2024-02-10T22:49:47.481Z,39.33
2024-02-10T22:52:23.512Z,36.47
2024-02-10T22:54:54.775Z,34.60
2024-02-10T22:57:25.191Z,32.70
2024-02-10T22:59:55.267Z,32.13
2024-02-10T23:02:25.337Z,39.37
2024-02-10T23:04:58.269Z,36.63
2024-02-10T23:07:32.874Z,34.70
2024-02-10T23:10:02.988Z,37.13
2024-02-10T23:12:34.541Z,45.30
2024-02-10T23:15:08.335Z,34.50
2024-02-10T23:17:39.577Z,34.40
2024-02-10T23:20:13.158Z,36.70
2024-02-10T23:22:47.145Z,39.63
2024-02-10T23:25:17.307Z,42.97
2024-02-10T23:27:47.601Z,38.20
2024-02-10T23:30:19.943Z,39.97
2024-02-10T23:32:51.069Z,39.13
2024-02-10T23:35:23.349Z,37.67
2024-02-10T23:37:56.973Z,40.97
2024-02-10T23:40:27.258Z,38.90
2024-02-10T23:43:01.308Z,45.47
2024-02-10T23:45:31.551Z,46.70
2024-02-10T23:48:04.452Z,34.87
2024-02-10T23:50:37.511Z,50.43
2024-02-10T23:53:11.789Z,47.10
2024-02-10T23:55:44.562Z,45.57
2024-02-10T23:58:14.650Z,47.23
